Time;durP1;ratioP1;P1;durP2;ratioP2;P2;SDS_P1;SDS_P2;PMS_P1;PMS_P2;Temp;Humidity;BMP_temperature;BMP_pressure;BME280_temperature;BME280_humidity;BME280_pressure;Samples;Min_cycle;Max_cycle;Signal;HPM_P1;HPM_P2
2023/01/11 00:01:33;;;;;;;3.63;1.52;;;;;;;14.88;62.15;100283.41;5112502;28;20119;-59
2023/01/11 00:04:01;;;;;;;2.63;1.40;;;;;;;14.87;62.19;100279.88;5112371;28;20039;-60
2023/01/11 00:06:29;;;;;;;3.95;1.75;;;;;;;14.83;62.02;100277.53;5112378;28;20043;-59
2023/01/11 00:08:58;;;;;;;1.85;1.20;;;;;;;14.81;62.05;100284.84;5112386;28;20051;-57
2023/01/11 00:11:26;;;;;;;3.53;1.50;;;;;;;14.79;62.09;100282.28;5112300;28;20050;-59
2023/01/11 00:13:54;;;;;;;2.75;1.45;;;;;;;14.76;62.22;100279.81;5112246;28;20047;-59
2023/01/11 00:16:22;;;;;;;2.90;1.63;;;;;;;14.73;62.30;100282.75;5112157;28;20058;-58
2023/01/11 00:18:52;;;;;;;2.28;1.30;;;;;;;14.72;62.17;100290.94;5112278;28;20040;-58
2023/01/11 00:21:21;;;;;;;3.20;1.60;;;;;;;14.69;62.03;100285.81;5112270;28;20039;-58
2023/01/11 00:23:50;;;;;;;3.03;1.80;;;;;;;14.66;62.33;100280.66;5112157;28;20101;-59
2023/01/11 00:26:18;;;;;;;2.78;1.30;;;;;;;14.63;62.20;100283.56;5112220;28;20055;-58
2023/01/11 00:28:48;;;;;;;3.05;1.60;;;;;;;14.59;62.05;100280.28;5112076;28;20043;-59
2023/01/11 00:31:16;;;;;;;3.72;1.80;;;;;;;14.57;62.07;100276.84;5112168;28;20048;-59
2023/01/11 00:33:45;;;;;;;2.38;1.50;;;;;;;14.54;62.12;100283.31;5112440;28;20055;-58
2023/01/11 00:36:14;;;;;;;2.33;1.50;;;;;;;14.52;62.14;100279.88;5112165;28;20059;-58
2023/01/11 00:38:50;;;;;;;2.53;1.40;;;;;;;14.51;62.20;100274.63;5111971;28;20507;-59
2023/01/11 00:49:38;;;;;;;3.47;1.73;;;;;;;14.41;62.14;100298.59;5111934;28;20043;-59
2023/01/11 00:52:08;;;;;;;2.97;1.48;;;;;;;14.39;62.13;100300.56;5111935;28;20040;-59
2023/01/11 00:54:37;;;;;;;2.90;1.70;;;;;;;14.37;62.24;100306.97;5111923;28;20130;-59
2023/01/11 00:57:06;;;;;;;3.20;1.58;;;;;;;14.36;62.07;100305.28;5111885;28;20488;-59
2023/01/11 00:59:34;;;;;;;2.55;1.60;;;;;;;14.32;61.98;100308.19;5111862;28;20048;-59
2023/01/11 01:02:02;;;;;;;2.50;1.48;;;;;;;14.31;61.92;100313.69;5111857;28;20050;-59
2023/01/11 01:04:31;;;;;;;3.35;1.70;;;;;;;14.29;61.99;100305.75;5111873;28;20048;-59
2023/01/11 01:06:59;;;;;;;2.85;1.75;;;;;;;14.28;61.64;100311.19;5114355;28;20048;-59
2023/01/11 01:09:29;;;;;;;2.75;1.60;;;;;;;14.23;62.08;100319.59;5115819;28;20085;-59
2023/01/11 01:11:57;;;;;;;3.20;1.75;;;;;;;14.24;61.76;100328.50;5115720;28;20055;-59
2023/01/11 01:14:28;;;;;;;2.65;1.55;;;;;;;14.23;61.82;100332.16;5097138;28;20049;-59
2023/01/11 01:16:58;;;;;;;3.75;1.60;;;;;;;14.21;61.84;100334.13;5097179;28;20047;-59
2023/01/11 01:19:27;;;;;;;2.92;1.55;;;;;;;14.18;61.87;100324.44;5115704;28;20049;-59
2023/01/11 01:21:56;;;;;;;2.15;1.35;;;;;;;14.17;61.85;100328.09;5115521;28;20448;-59
2023/01/11 01:24:27;;;;;;;2.50;1.38;;;;;;;14.15;61.73;100338.09;5115480;28;20074;-59
2023/01/11 01:26:57;;;;;;;2.78;1.60;;;;;;;14.14;61.62;100339.06;5115382;28;20042;-59
2023/01/11 01:29:26;;;;;;;2.10;1.40;;;;;;;14.11;62.00;100341.97;5115288;28;20050;-59
2023/01/11 01:31:54;;;;;;;2.92;1.50;;;;;;;14.11;61.92;100349.19;5115463;28;20050;-59
2023/01/11 01:34:22;;;;;;;2.97;1.55;;;;;;;14.08;61.96;100344.88;5115211;28;20053;-59
2023/01/11 01:36:50;;;;;;;2.92;1.63;;;;;;;14.06;61.90;100333.41;5115101;28;20408;-59
2023/01/11 01:39:18;;;;;;;2.95;1.30;;;;;;;14.03;61.76;100326.44;5115124;28;20075;-59
2023/01/11 01:41:46;;;;;;;2.60;1.50;;;;;;;14.02;61.94;100331.94;5114963;28;20089;-59
2023/01/11 01:44:54;;;;;;;2.80;1.50;;;;;;;14.01;61.98;100340.94;5115003;28;20082;-59
2023/01/11 01:47:26;;;;;;;3.10;1.48;;;;;;;14.00;61.94;100344.59;5115103;28;20055;-58
2023/01/11 01:49:56;;;;;;;2.50;1.40;;;;;;;13.98;61.80;100335.78;5096758;28;20400;-58
2023/01/11 01:52:27;;;;;;;3.05;1.50;;;;;;;13.96;61.92;100335.03;5114912;28;20079;-59
2023/01/11 01:55:00;;;;;;;2.63;1.38;;;;;;;13.95;61.86;100338.69;5114897;28;20051;-58
2023/01/11 01:57:33;;;;;;;3.20;1.50;;;;;;;13.93;61.68;100346.00;5114856;28;20104;-58
2023/01/11 02:00:05;;;;;;;;;;;;;;;13.91;61.93;100346.13;5115348;28;20113;-58
2023/01/11 02:02:36;;;;;;;2.58;1.50;;;;;;;13.88;62.05;100346.31;5114709;28;19920;-58
2023/01/11 02:05:06;;;;;;;3.28;1.50;;;;;;;13.88;61.92;100350.81;5114712;28;20054;-58
2023/01/11 02:07:39;;;;;;;2.67;1.42;;;;;;;13.86;62.07;100350.09;5114630;28;20488;-60
2023/01/11 02:10:09;;;;;;;3.53;1.50;;;;;;;13.85;61.81;100356.41;5114645;28;20043;-59
2023/01/11 02:12:40;;;;;;;2.78;1.40;;;;;;;13.82;61.83;100364.69;5114540;28;20071;-59
2023/01/11 02:15:11;;;;;;;3.08;1.52;;;;;;;13.81;62.03;100371.88;5114427;28;20047;-59
2023/01/11 02:17:39;;;;;;;2.10;1.20;;;;;;;13.80;62.10;100367.50;5113064;28;20067;-58
2023/01/11 02:20:29;;;;;;;2.33;1.40;;;;;;;13.78;61.88;100369.41;5114447;28;20051;-58
2023/01/11 02:23:26;;;;;;;2.00;1.30;;;;;;;13.77;62.14;100366.84;5105638;28;20047;-58
2023/01/11 02:26:13;;;;;;;2.08;1.40;;;;;;;13.74;62.09;100366.09;5095956;28;20043;-59
2023/01/11 02:28:51;;;;;;;2.83;1.63;;;;;;;13.74;61.93;100359.88;5114615;28;20368;-59
2023/01/11 02:31:29;;;;;;;2.75;1.42;;;;;;;13.71;61.87;100369.00;5095853;28;20050;-59
2023/01/11 02:34:12;;;;;;;2.72;1.45;;;;;;;13.72;61.76;100369.84;5114141;28;20067;-59
2023/01/11 02:36:52;;;;;;;2.53;1.50;;;;;;;13.70;61.95;100372.66;5095948;28;20393;-58
2023/01/11 02:39:30;;;;;;;3.80;1.60;;;;;;;13.67;61.84;100370.16;5113982;28;20055;-59
2023/01/11 02:45:07;;;;;;;2.53;1.50;;;;;;;13.65;61.96;100368.56;5113939;28;20397;-59
2023/01/11 02:47:44;;;;;;;3.20;1.50;;;;;;;13.64;61.86;100373.06;5113986;28;20151;-59
2023/01/11 02:50:19;;;;;;;2.08;1.30;;;;;;;13.62;61.89;100371.47;5113767;28;20048;-59
2023/01/11 02:52:55;;;;;;;1.92;1.33;;;;;;;13.59;61.91;100375.22;5113588;28;20066;-59
2023/01/11 02:55:27;;;;;;;2.38;1.40;;;;;;;13.59;61.84;100369.84;5113730;28;20506;-59
2023/01/11 02:57:58;;;;;;;1.83;1.17;;;;;;;13.58;61.84;100376.19;5094941;28;20445;-59
2023/01/11 03:00:29;;;;;;;3.17;1.75;;;;;;;13.55;61.79;100376.41;5113607;28;20377;-59
2023/01/11 03:03:12;;;;;;;3.10;1.50;;;;;;;13.55;61.97;100378.22;5113553;28;20039;-59
2023/01/11 03:05:43;;;;;;;;;;;;;;;13.52;61.97;100382.00;5113931;28;20048;-58
2023/01/11 03:08:25;;;;;;;2.85;1.58;;;;;;;13.50;61.78;100385.72;5113500;28;20006;-58
2023/01/11 03:11:03;;;;;;;3.35;1.50;;;;;;;13.48;61.76;100393.88;5113402;28;20100;-59
2023/01/11 03:13:40;;;;;;;2.28;1.45;;;;;;;13.48;61.81;100393.88;5113288;28;20074;-59
2023/01/11 03:16:23;;;;;;;2.42;1.40;;;;;;;13.46;61.94;100396.66;5095024;28;20124;-59
2023/01/11 03:18:58;;;;;;;2.50;1.63;;;;;;;13.46;61.69;100401.16;5113386;28;20089;-59
2023/01/11 03:21:39;;;;;;;3.35;1.58;;;;;;;13.44;62.04;100403.09;5113186;28;20051;-58
2023/01/11 03:24:15;;;;;;;2.45;1.40;;;;;;;13.42;62.02;100405.91;5113150;28;20412;-59
2023/01/11 03:26:52;;;;;;;3.05;1.70;;;;;;;13.41;61.93;100412.22;5113060;28;20047;-59
2023/01/11 03:29:29;;;;;;;2.65;1.45;;;;;;;13.40;61.88;100420.34;5112749;28;20512;-58
2023/01/11 03:32:12;;;;;;;2.65;1.70;;;;;;;13.38;61.84;100430.31;5113297;28;20097;-59
2023/01/11 03:34:50;;;;;;;4.35;1.60;;;;;;;13.37;61.98;100428.59;5112825;28;20078;-59
2023/01/11 03:37:23;;;;;;;3.13;1.65;;;;;;;13.37;62.09;100429.44;5112905;28;20040;-59
2023/01/11 03:39:56;;;;;;;3.20;1.50;;;;;;;13.35;61.88;100422.50;5112754;28;20044;-59
2023/01/11 03:42:28;;;;;;;3.00;1.70;;;;;;;13.34;61.77;100424.31;5112635;28;20079;-58
2023/01/11 03:44:59;;;;;;;2.75;1.70;;;;;;;13.33;61.88;100421.75;5094398;28;20549;-59
2023/01/11 03:47:31;;;;;;;2.55;1.70;;;;;;;13.31;61.78;100418.28;5112727;28;20051;-58
2023/01/11 03:50:03;;;;;;;3.50;1.70;;;;;;;13.30;61.83;100406.72;5112791;28;20065;-59
2023/01/11 03:52:36;;;;;;;2.75;1.73;;;;;;;13.28;61.89;100408.66;5112640;28;20074;-59
2023/01/11 03:55:08;;;;;;;2.88;1.50;;;;;;;13.27;61.53;100395.38;5112575;28;20039;-58
2023/01/11 03:57:42;;;;;;;3.22;1.88;;;;;;;13.26;61.76;100383.78;5112415;28;20048;-59
2023/01/11 04:00:11;;;;;;;;;;;;;;;13.25;61.92;100381.22;5112932;28;20070;-58
2023/01/11 04:02:41;;;;;;;3.60;1.63;;;;;;;13.24;61.66;100379.53;5112399;28;19981;-59
2023/01/11 04:05:10;;;;;;;2.60;1.52;;;;;;;13.22;61.78;100382.31;5112428;28;20097;-58
2023/01/11 04:07:38;;;;;;;2.60;1.70;;;;;;;13.21;61.70;100385.06;5112542;28;20047;-59
2023/01/11 04:10:08;;;;;;;3.63;1.90;;;;;;;13.20;61.68;100388.72;5112419;28;20484;-58
2023/01/11 04:12:36;;;;;;;3.17;1.70;;;;;;;13.20;61.56;100388.72;5112535;28;20075;-58
2023/01/11 04:15:09;;;;;;;3.58;1.90;;;;;;;13.18;61.51;100392.31;5112291;28;20047;-59
2023/01/11 04:17:38;;;;;;;2.17;1.50;;;;;;;13.16;61.59;100404.13;5093925;28;20052;-59
2023/01/11 04:20:10;;;;;;;2.63;1.52;;;;;;;13.14;61.67;100404.22;5112369;28;20047;-59
2023/01/11 04:22:38;;;;;;;3.20;1.83;;;;;;;13.14;61.44;100401.53;5112187;28;20043;-58
2023/01/11 04:25:08;;;;;;;3.20;1.83;;;;;;;13.11;61.68;100401.72;5112236;28;20122;-58
2023/01/11 04:27:36;;;;;;;3.20;1.60;;;;;;;13.12;61.66;100400.81;5112138;28;20479;-59
2023/01/11 04:30:05;;;;;;;3.70;1.98;;;;;;;13.09;61.62;100389.41;5093912;28;20496;-59
2023/01/11 04:32:33;;;;;;;2.53;1.60;;;;;;;13.09;61.77;100392.94;5112159;28;20043;-59
2023/01/11 04:35:02;;;;;;;3.35;1.83;;;;;;;13.08;61.85;100391.25;5112102;28;20044;-58
2023/01/11 04:37:31;;;;;;;2.72;1.80;;;;;;;13.09;61.63;100384.91;5111924;28;20126;-59
2023/01/11 04:39:59;;;;;;;4.55;1.85;;;;;;;13.11;61.59;100403.56;5112083;28;20122;-59
2023/01/11 04:42:26;;;;;;;3.00;1.70;;;;;;;13.14;61.94;100416.75;5115355;28;20090;-59
2023/01/11 04:44:55;;;;;;;3.60;1.70;;;;;;;13.18;62.48;100424.47;5116177;28;20487;-59
2023/01/11 04:47:24;;;;;;;2.42;1.60;;;;;;;13.29;62.97;100438.97;5097866;28;20051;-59
2023/01/11 04:49:52;;;;;;;3.13;1.50;;;;;;;13.39;63.04;100450.78;5115994;28;20205;-59
2023/01/11 04:52:20;;;;;;;2.30;1.50;;;;;;;13.50;63.05;100456.25;5116097;28;20373;-58
2023/01/11 04:54:51;;;;;;;2.53;1.48;;;;;;;13.64;62.80;100447.28;5097619;28;20044;-60
2023/01/11 04:57:20;;;;;;;2.80;1.70;;;;;;;13.75;62.74;100433.97;5097638;28;20044;-59
2023/01/11 04:59:48;;;;;;;2.40;1.63;;;;;;;13.87;62.63;100434.91;5115931;28;20105;-57
2023/01/11 05:02:17;;;;;;;2.80;1.60;;;;;;;13.98;62.36;100435.88;5115804;28;20043;-59
2023/01/11 05:04:45;;;;;;;3.08;1.50;;;;;;;14.09;62.24;100432.44;5115850;28;20124;-59
2023/01/11 05:07:13;;;;;;;3.22;1.58;;;;;;;14.20;62.14;100437.88;5115771;28;20122;-59
2023/01/11 05:09:42;;;;;;;2.80;1.65;;;;;;;14.28;62.05;100435.50;5115805;28;20040;-59
2023/01/11 05:12:11;;;;;;;4.60;1.67;;;;;;;14.39;61.85;100420.44;5115811;28;20084;-59
2023/01/11 05:14:42;;;;;;;3.20;1.60;;;;;;;14.48;61.63;100414.44;5115086;28;20051;-59
2023/01/11 05:17:13;;;;;;;2.20;1.40;;;;;;;14.55;61.74;100419.22;5115483;28;20043;-60
2023/01/11 05:19:41;;;;;;;3.05;1.60;;;;;;;14.66;61.52;100429.16;5115548;28;20036;-59
2023/01/11 05:22:10;;;;;;;3.45;1.70;;;;;;;14.77;61.40;100442.66;5115593;28;20407;-60
2023/01/11 05:24:38;;;;;;;2.83;1.52;;;;;;;14.87;61.23;100441.00;5115473;28;20044;-59
2023/01/11 05:27:06;;;;;;;3.33;1.60;;;;;;;14.96;61.14;100435.88;5097143;28;20044;-59
2023/01/11 05:29:35;;;;;;;2.65;1.50;;;;;;;15.05;60.97;100438.72;5115234;28;20035;-59
2023/01/11 05:32:05;;;;;;;3.15;1.75;;;;;;;15.12;60.85;100436.44;5115472;28;20047;-59
2023/01/11 05:34:33;;;;;;;2.83;1.40;;;;;;;15.20;60.89;100438.56;5115217;28;20040;-59
2023/01/11 05:37:01;;;;;;;3.08;1.58;;;;;;;15.24;60.85;100427.44;5115267;28;20054;-59
2023/01/11 05:39:30;;;;;;;2.78;1.73;;;;;;;15.29;60.85;100424.41;5115019;28;20100;-59
2023/01/11 05:41:58;;;;;;;2.72;1.60;;;;;;;15.32;60.85;100424.16;5114837;28;20096;-59
2023/01/11 05:47:13;;;;;;;2.05;1.35;;;;;;;15.29;60.93;100425.28;5115003;28;20148;-58
2023/01/11 05:49:41;;;;;;;2.70;1.40;;;;;;;15.28;60.95;100434.31;5097099;28;20484;-59
2023/01/11 05:52:10;;;;;;;2.42;1.40;;;;;;;15.25;60.99;100431.88;5114704;28;20396;-58
2023/01/11 05:54:38;;;;;;;2.22;1.50;;;;;;;15.23;60.97;100431.09;5096453;28;20127;-59
2023/01/11 05:57:09;;;;;;;2.63;1.50;;;;;;;15.20;61.03;100422.44;5114680;28;20042;-59
2023/01/11 05:59:37;;;;;;;2.70;1.55;;;;;;;15.16;61.00;100403.88;5114664;28;20054;-59
2023/01/11 06:02:05;;;;;;;2.88;1.60;;;;;;;15.14;61.10;100410.31;5114558;28;20043;-60
2023/01/11 06:04:35;;;;;;;4.57;1.80;;;;;;;15.10;61.14;100409.72;5114642;28;20048;-59
2023/01/11 06:07:03;;;;;;;3.10;1.70;;;;;;;15.06;61.09;100410.06;5114648;28;20464;-59
2023/01/11 06:09:32;;;;;;;2.90;1.70;;;;;;;15.02;61.10;100416.63;5114541;28;20051;-59
2023/01/11 06:12:00;;;;;;;3.00;1.65;;;;;;;14.98;61.20;100415.16;5114391;28;20043;-59
2023/01/11 06:14:28;;;;;;;3.28;1.45;;;;;;;14.94;61.09;100419.88;5114330;28;20054;-59
2023/01/11 06:16:56;;;;;;;2.88;1.70;;;;;;;14.89;61.13;100414.88;5114345;28;20056;-60
2023/01/11 06:19:25;;;;;;;3.67;2.00;;;;;;;14.86;61.09;100416.91;5095645;28;20043;-59
2023/01/11 06:21:54;;;;;;;3.22;1.80;;;;;;;14.81;61.11;100419.97;5114084;28;20093;-60
2023/01/11 06:24:22;;;;;;;4.18;1.95;;;;;;;14.78;61.11;100420.22;5114166;28;20126;-59
2023/01/11 06:26:52;;;;;;;4.95;2.17;;;;;;;14.74;61.48;100407.13;5114102;28;20430;-59
2023/01/11 06:29:21;;;;;;;3.72;2.00;;;;;;;14.69;61.04;100399.41;5114003;28;20054;-59
2023/01/11 06:31:49;;;;;;;3.63;2.00;;;;;;;14.66;61.14;100421.09;5095417;28;20047;-59
2023/01/11 06:34:17;;;;;;;3.65;1.95;;;;;;;14.63;61.10;100431.22;5113902;28;20043;-59
2023/01/11 06:36:45;;;;;;;4.32;2.15;;;;;;;14.59;61.18;100435.97;5113596;28;20044;-59
2023/01/11 06:39:15;;;;;;;4.25;2.45;;;;;;;14.53;61.01;100417.63;5095392;28;20047;-59
2023/01/11 06:41:43;;;;;;;3.63;2.10;;;;;;;14.50;60.89;100421.41;5113695;28;20043;-59
2023/01/11 06:44:11;;;;;;;4.20;2.88;;;;;;;14.47;60.49;100423.44;5113378;28;20530;-58
2023/01/11 06:46:39;;;;;;;5.43;3.17;;;;;;;14.45;60.09;100428.06;5113585;28;20073;-59
2023/01/11 06:49:07;;;;;;;4.55;3.00;;;;;;;14.42;59.76;100439.00;5113370;28;20050;-59
2023/01/11 06:51:35;;;;;;;4.35;2.38;;;;;;;14.39;59.79;100449.97;5113152;28;20039;-57
2023/01/11 06:54:03;;;;;;;4.63;2.28;;;;;;;14.37;59.65;100451.88;5113541;28;20043;-58
2023/01/11 06:56:33;;;;;;;3.42;2.40;;;;;;;14.35;60.08;100459.19;5113500;28;20082;-58
2023/01/11 06:59:01;;;;;;;4.75;2.47;;;;;;;14.31;60.46;100459.44;5113061;28;20047;-58
2023/01/11 07:01:31;;;;;;;4.10;2.58;;;;;;;14.28;60.24;100456.97;5113231;28;20258;-59
2023/01/11 07:03:59;;;;;;;4.35;2.50;;;;;;;14.25;60.22;100473.28;5112778;28;20412;-59
2023/01/11 07:06:30;;;;;;;4.00;2.50;;;;;;;14.22;60.03;100470.81;5091587;28;20044;-59
2023/01/11 07:08:58;;;;;;;3.75;2.40;;;;;;;14.21;59.65;100477.16;5092919;28;20396;-57
2023/01/11 07:11:27;;;;;;;4.22;2.42;;;;;;;14.19;59.76;100489.81;5074541;28;20044;-58
2023/01/11 07:13:57;;;;;;;4.50;2.50;;;;;;;14.16;59.47;100498.06;5092842;28;20051;-58
2023/01/11 07:16:26;;;;;;;4.45;2.47;;;;;;;14.15;59.40;100498.19;5092684;28;20040;-58
2023/01/11 07:18:54;;;;;;;4.50;3.10;;;;;;;14.12;59.21;100495.72;5074517;28;20066;-59
2023/01/11 07:21:22;;;;;;;5.47;2.85;;;;;;;14.10;58.96;100503.03;5074494;28;20052;-58
2023/01/11 07:23:52;;;;;;;5.72;3.10;;;;;;;14.06;58.81;100513.09;5092767;28;20467;-58
2023/01/11 07:26:20;;;;;;;4.90;3.13;;;;;;;14.03;58.62;100516.88;5092753;28;20051;-58
2023/01/11 07:28:48;;;;;;;5.30;2.72;;;;;;;14.03;58.89;100518.69;5092520;28;20056;-59
2023/01/11 07:31:18;;;;;;;6.20;2.75;;;;;;;14.01;59.36;100515.25;5092395;28;20045;-60
2023/01/11 07:33:46;;;;;;;4.00;2.30;;;;;;;14.02;59.92;100522.34;5092429;28;20047;-59
2023/01/11 07:36:14;;;;;;;3.65;2.40;;;;;;;14.04;60.33;100531.13;5092486;28;20056;-60
2023/01/11 07:38:42;;;;;;;3.97;2.50;;;;;;;14.11;60.72;100520.84;5092331;28;20093;-60
2023/01/11 07:43:53;;;;;;;3.95;2.38;;;;;;;14.29;60.93;100517.72;5091482;28;20078;-59
2023/01/11 07:46:22;;;;;;;4.35;2.42;;;;;;;14.39;60.74;100509.00;5074058;28;20130;-59
2023/01/11 07:48:50;;;;;;;4.43;2.40;;;;;;;14.48;60.63;100508.38;5074014;28;20052;-59
2023/01/11 07:51:22;;;;;;;3.92;2.30;;;;;;;14.57;60.51;100502.31;5092196;28;20048;-59
2023/01/11 07:53:51;;;;;;;3.97;2.28;;;;;;;14.68;60.38;100505.09;5091950;28;20051;-58
2023/01/11 07:56:19;;;;;;;3.83;2.20;;;;;;;14.76;60.33;100496.47;5092276;28;20134;-58
2023/01/11 07:58:50;;;;;;;3.88;2.40;;;;;;;14.85;60.23;100493.94;5091856;28;20048;-58
2023/01/11 08:01:18;;;;;;;3.38;2.10;;;;;;;14.96;60.16;100503.03;5091921;28;20416;-58
2023/01/11 08:03:48;;;;;;;3.92;2.05;;;;;;;15.03;60.07;100507.00;5091906;28;20087;-59
2023/01/11 08:06:16;;;;;;;5.47;2.15;;;;;;;15.06;60.06;100512.16;5091917;28;20085;-58
2023/01/11 08:08:44;;;;;;;3.55;2.00;;;;;;;15.09;60.11;100514.59;5091824;28;20052;-59
2023/01/11 08:16:43;;;;;;;3.78;2.22;;;;;;;15.08;59.98;100518.25;5090812;28;20052;-59
2023/01/11 08:19:13;;;;;;;4.15;2.30;;;;;;;15.07;60.15;100517.41;5091776;28;20048;-58
2023/01/11 08:21:43;;;;;;;3.88;2.30;;;;;;;15.05;60.21;100524.69;5073559;28;20101;-58
2023/01/11 08:24:11;;;;;;;3.97;2.20;;;;;;;15.02;60.19;100514.19;5073620;28;20048;-59
2023/01/11 08:26:42;;;;;;;3.90;2.35;;;;;;;15.01;60.26;100525.06;5091871;28;20428;-58
2023/01/11 08:29:10;;;;;;;4.50;2.50;;;;;;;14.98;60.25;100527.97;5073468;28;20048;-59
2023/01/11 08:31:38;;;;;;;3.97;2.17;;;;;;;14.96;60.24;100527.22;5091549;28;20119;-58
2023/01/11 08:34:06;;;;;;;5.07;2.22;;;;;;;14.93;60.18;100527.44;5091763;28;20051;-59
2023/01/11 08:36:36;;;;;;;4.38;2.50;;;;;;;14.90;60.37;100536.59;5073565;28;20072;-59
2023/01/11 08:39:05;;;;;;;5.25;2.40;;;;;;;14.86;60.46;100530.59;5073508;28;20052;-59
2023/01/11 08:41:33;;;;;;;4.13;2.30;;;;;;;14.85;60.27;100539.59;5091488;28;20452;-59
2023/01/11 08:44:01;;;;;;;3.80;2.20;;;;;;;14.82;60.27;100533.59;5091304;28;20052;-59
2023/01/11 08:46:32;;;;;;;5.47;2.50;;;;;;;14.81;60.23;100531.91;5091571;28;20500;-58
2023/01/11 08:49:01;;;;;;;3.75;2.20;;;;;;;14.78;60.24;100518.72;5091468;28;20397;-59
2023/01/11 08:51:30;;;;;;;4.50;2.40;;;;;;;14.76;60.37;100528.69;5091462;28;20119;-59
2023/01/11 08:53:59;;;;;;;4.70;2.78;;;;;;;14.73;60.27;100540.50;5091477;28;20499;-58
2023/01/11 08:56:27;;;;;;;4.50;2.22;;;;;;;14.70;60.25;100538.06;5091311;28;20488;-59
2023/01/11 08:58:55;;;;;;;3.58;2.10;;;;;;;14.69;60.33;100540.84;5091398;28;20040;-58
2023/01/11 09:01:24;;;;;;;4.15;2.42;;;;;;;14.67;60.37;100540.97;5091237;28;20064;-59
2023/01/11 09:03:52;;;;;;;3.60;2.17;;;;;;;14.65;60.38;100534.84;5091601;28;20097;-58
2023/01/11 09:06:21;;;;;;;3.88;2.17;;;;;;;14.65;60.40;100547.41;5091395;28;20100;-59
2023/01/11 09:08:49;;;;;;;4.85;2.45;;;;;;;14.62;60.49;100542.25;5091275;28;20131;-58
2023/01/11 09:14:04;;;;;;;3.78;2.30;;;;;;;14.59;60.51;100543.34;5091287;28;20040;-59
2023/01/11 09:16:33;;;;;;;3.47;2.08;;;;;;;14.57;60.42;100535.41;5091147;28;20127;-59
2023/01/11 09:19:01;;;;;;;3.58;2.22;;;;;;;14.55;60.45;100531.09;5091269;28;20044;-60
2023/01/11 09:21:30;;;;;;;4.18;2.50;;;;;;;14.55;60.45;100541.84;5072861;28;20068;-58
2023/01/11 09:23:58;;;;;;;3.95;2.30;;;;;;;14.54;60.55;100546.34;5072939;28;20135;-59
2023/01/11 09:26:28;;;;;;;4.25;2.20;;;;;;;14.54;60.51;100542.81;5091332;28;20044;-59
2023/01/11 09:28:56;;;;;;;3.67;2.35;;;;;;;14.53;60.49;100539.25;5094662;28;20043;-59
2023/01/11 09:31:24;;;;;;;3.35;2.25;;;;;;;14.54;60.70;100532.06;5094675;28;20408;-58
2023/01/11 09:33:53;;;;;;;4.80;2.40;;;;;;;14.53;60.44;100538.41;5076534;28;20071;-59
2023/01/11 09:36:22;;;;;;;3.75;2.10;;;;;;;14.53;60.63;100533.03;5094657;28;20055;-58
2023/01/11 09:38:51;;;;;;;4.10;2.40;;;;;;;14.53;60.57;100520.47;5094506;28;20477;-58
2023/01/11 09:41:38;;;;;;;5.72;2.70;;;;;;;14.54;60.54;100524.88;5094540;28;20048;-59
2023/01/11 09:44:15;;;;;;;4.35;2.40;;;;;;;14.56;60.69;100524.75;5094285;28;20131;-59
2023/01/11 09:46:49;;;;;;;4.65;2.40;;;;;;;14.57;60.71;100523.78;5094549;28;20040;-59
2023/01/11 09:49:22;;;;;;;4.38;2.47;;;;;;;14.60;60.37;100523.59;5094507;28;20044;-59
2023/01/11 09:51:51;;;;;;;4.10;2.42;;;;;;;14.63;60.48;100531.41;5094053;28;20048;-58
2023/01/11 09:54:26;;;;;;;3.88;2.38;;;;;;;14.67;60.42;100527.56;5094264;28;20040;-58
2023/01/11 09:57:14;;;;;;;4.85;2.40;;;;;;;14.71;60.33;100523.66;5094377;28;20044;-58
2023/01/11 09:59:49;;;;;;;3.78;2.47;;;;;;;14.77;60.36;100520.53;5075800;28;20072;-59
2023/01/11 10:02:34;;;;;;;3.53;2.22;;;;;;;14.81;60.22;100510.41;5094184;28;20048;-59
2023/01/11 10:05:30;;;;;;;3.78;2.30;;;;;;;14.87;60.37;100508.16;5094622;28;20040;-59
2023/01/11 10:08:24;;;;;;;3.83;2.30;;;;;;;14.95;60.63;100504.00;5074301;28;20044;-58
2023/01/11 10:11:26;;;;;;;5.30;2.77;;;;;;;15.04;61.02;100497.94;5094046;28;20674;-58
2023/01/11 10:14:25;;;;;;;5.25;2.50;;;;;;;15.12;60.83;100482.97;5094008;28;20040;-58
2023/01/11 10:17:27;;;;;;;3.80;2.10;;;;;;;15.25;60.45;100482.03;5094138;28;20047;-58
2023/01/11 10:20:23;;;;;;;3.47;2.40;;;;;;;15.35;60.24;100489.31;5093734;28;20040;-58
2023/01/11 10:22:57;;;;;;;3.92;2.22;;;;;;;15.44;59.86;100483.25;5093834;28;20055;-57
2023/01/11 10:25:33;;;;;;;5.05;2.40;;;;;;;15.52;59.50;100481.75;5093939;28;20051;-58
2023/01/11 10:28:06;;;;;;;3.17;2.10;;;;;;;15.59;59.21;100489.25;5093803;28;20044;-57
2023/01/11 10:30:54;;;;;;;4.57;2.75;;;;;;;15.65;58.63;100487.97;5093558;28;20439;-58
2023/01/11 10:33:45;;;;;;;3.47;2.17;;;;;;;15.70;58.45;100488.44;5093626;28;20044;-58
2023/01/11 10:36:33;;;;;;;4.00;2.45;;;;;;;15.72;58.36;100491.88;5093522;28;20108;-57
2023/01/11 10:39:30;;;;;;;5.30;2.63;;;;;;;15.70;58.23;100488.44;5092343;28;20071;-58
2023/01/11 10:42:08;;;;;;;4.32;2.45;;;;;;;15.71;58.18;100480.25;5093204;28;20378;-57
2023/01/11 10:44:42;;;;;;;3.72;2.30;;;;;;;15.72;58.27;100481.09;5093393;28;20101;-57
2023/01/11 10:47:17;;;;;;;4.35;2.30;;;;;;;15.71;58.48;100476.72;5093349;28;20401;-60
2023/01/11 10:49:53;;;;;;;4.30;2.53;;;;;;;15.73;58.51;100482.84;5093271;28;20485;-59
2023/01/11 10:52:33;;;;;;;4.18;2.40;;;;;;;15.74;58.62;100488.09;5075053;28;20112;-59
2023/01/11 10:55:12;;;;;;;4.00;2.40;;;;;;;15.79;58.67;100492.25;5093153;28;20051;-59
2023/01/11 10:57:54;;;;;;;4.05;2.30;;;;;;;15.80;58.80;100489.44;5093176;28;20044;-59
2023/01/11 11:00:36;;;;;;;4.60;2.53;;;;;;;15.84;58.74;100490.94;5092718;28;20515;-59
2023/01/11 11:03:46;;;;;;;4.35;2.50;;;;;;;15.88;58.66;100484.31;5092805;28;20052;-58
2023/01/11 11:06:24;;;;;;;3.72;2.50;;;;;;;15.92;58.53;100477.75;5010484;28;20049;-60
2023/01/11 11:09:04;;;;;;;4.25;2.50;;;;;;;15.95;58.73;100473.94;5080089;28;20056;-59
2023/01/11 11:11:36;;;;;;;4.47;2.80;;;;;;;15.97;58.68;100470.16;5092740;28;20055;-59
2023/01/11 11:14:14;;;;;;;3.65;2.38;;;;;;;15.99;58.86;100470.88;5074680;28;20420;-59
2023/01/11 11:16:55;;;;;;;5.25;2.58;;;;;;;16.02;58.99;100459.88;5092576;28;20122;-59
2023/01/11 11:19:30;;;;;;;4.18;2.30;;;;;;;16.04;59.05;100449.00;5074594;28;20040;-58
2023/01/11 11:21:59;;;;;;;4.07;2.40;;;;;;;16.07;59.06;100450.59;5092512;28;20052;-59
2023/01/11 11:24:33;;;;;;;4.15;2.40;;;;;;;16.10;59.08;100442.25;5092643;28;20048;-59
2023/01/11 11:27:08;;;;;;;4.05;2.22;;;;;;;16.12;59.36;100441.19;5092567;28;20048;-59
2023/01/11 11:29:42;;;;;;;4.40;2.22;;;;;;;16.16;59.17;100447.16;5092675;28;20113;-58
2023/01/11 11:32:20;;;;;;;5.47;2.35;;;;;;;16.20;59.25;100437.84;5092505;28;20044;-59
2023/01/11 11:34:51;;;;;;;3.55;2.17;;;;;;;16.23;59.37;100435.78;5092585;28;20451;-59
2023/01/11 11:37:25;;;;;;;3.55;2.20;;;;;;;16.27;59.41;100437.22;5092395;28;20044;-58
2023/01/11 11:39:55;;;;;;;3.92;2.10;;;;;;;16.31;59.22;100437.84;5092276;28;20050;-59
2023/01/11 11:42:24;;;;;;;3.97;2.20;;;;;;;16.35;59.30;100442.00;5092044;28;20140;-59
2023/01/11 11:45:14;;;;;;;3.63;2.03;;;;;;;16.40;59.38;100444.31;5092229;28;20473;-59
2023/01/11 11:47:43;;;;;;;4.88;2.40;;;;;;;16.44;59.27;100443.09;5092187;28;20093;-59
2023/01/11 11:50:25;;;;;;;4.20;2.33;;;;;;;16.47;59.22;100438.31;5091902;28;20044;-59
2023/01/11 11:53:30;;;;;;;3.78;2.10;;;;;;;16.52;59.25;100432.56;5092005;28;20121;-60
2023/01/11 11:55:59;;;;;;;4.50;2.10;;;;;;;16.57;59.25;100441.94;5092347;28;20502;-59
2023/01/11 11:58:27;;;;;;;3.72;2.13;;;;;;;16.62;59.25;100443.44;5091836;28;20071;-59
2023/01/11 12:00:55;;;;;;;4.25;2.25;;;;;;;16.65;59.19;100437.78;5091867;28;20056;-58
2023/01/11 12:03:28;;;;;;;3.95;1.95;;;;;;;16.68;59.05;100441.09;5092137;28;20070;-59
2023/01/11 12:06:01;;;;;;;3.05;1.98;;;;;;;16.72;59.08;100445.25;5092106;28;20040;-58
2023/01/11 12:08:33;;;;;;;4.03;2.37;;;;;;;16.74;59.27;100440.59;5092071;28;20046;-59
2023/01/11 12:11:03;;;;;;;4.50;2.40;;;;;;;16.79;59.19;100442.91;5091882;28;20431;-59
2023/01/11 12:13:33;;;;;;;4.00;2.10;;;;;;;16.83;59.35;100441.69;5091896;28;20048;-59
2023/01/11 12:16:04;;;;;;;4.22;2.20;;;;;;;16.85;59.19;100440.56;5091876;28;20082;-59